Healdsburg, CA

2:00 AM PDT on July 27, 2017 (GMT -0700)
Healdsburg | | Change Station

Elev 0 ft 38.62 °N, 122.87 °W | Updated 6 minutes ago

Clear
Clear
57.0 °F
Feels Like 57.0 °F
N
0.6
Wind Variable Wind from NW
Gusts 1.9 mph

Today
High -- | Low -- °F
--% Chance of Precip.
Yesterday
High -- | Low -- °F
Precip. -- in
Pressure 29.96 in
Visibility 9.0 miles
Clouds Mostly Cloudy 200 ft
Dew Point 47 °F
Humidity 70%
Rainfall 0.00 in
Snow Depth Not available.
6:09 AM 8:26 PM
Waxing Crescent, 19% visible
METAR KSTS 270853Z AUTO 16003KT 9SM BKN002 12/11 A2998 RMK AO2 SLP145 T01170111 58002
Pressure 29.96 in
Visibility 9.0 miles
Clouds Mostly Cloudy 200 ft
Dew Point 47 °F
Humidity 70%
Rainfall 0.00 in
Snow Depth Not available.
6:09 AM 8:26 PM
Waxing Crescent, 19% visible
METAR KSTS 270853Z AUTO 16003KT 9SM BKN002 12/11 A2998 RMK AO2 SLP145 T01170111 58002

Get Severe Weather Alerts

Thanks for signing up!

Be on the lookout for a verification email in your inbox.

You'll start receiving the daily forecast at 6 AM.

×

10-Day Weather Forecast

Almanac

Astronomy

Jul. 27, 2017 Rise Set
Actual Time
Civil Twilight
Nautical Twilight
Astronomical Twilight
Moon
Length of Visible Light
Length of Day
Tomorrow will be .
, % of the Moon is Illuminated

Today's Extremes

State Highs State Lows

Community

WunderPhotos

Category 6

Welcome to Category 6. This is the collective home for Weather Underground's featured writeups by Dr. Jeff Masters (right), Bob Henson (left), Chris Burt, and other regular contributors.

Nearby

Air Quality

  Air Quality AQ Index Pollutant
Not available.

Snow Depth

Station Depth Elevation

Earthquake Activity

City Distance Mag. Time & Date
Minimum magnitude displayed is 2.5.

Coastal Water Temperatures

Place Temperature

Stations

Nearby Weather Stations

Station Location Temp. Windchill Dew Point Humidity Wind Precip. Elev Updated Type
                   

Watches & Warnings

There are currently no watches in effect.